createdAt,value
2022-12-03T00:00:12.118Z,29.85
2022-12-03T00:01:15.248Z,29.92
2022-12-03T00:02:17.625Z,29.67
2022-12-03T00:03:20.296Z,28.30
2022-12-03T00:04:22.879Z,30.17
2022-12-03T00:05:25.162Z,32.20
2022-12-03T00:06:32.940Z,27.30
2022-12-03T00:07:36.760Z,34.47
2022-12-03T00:08:39.000Z,33.10
2022-12-03T00:09:41.240Z,26.80
2022-12-03T00:10:43.504Z,32.42
2022-12-03T00:11:45.734Z,28.02
2022-12-03T00:12:48.000Z,28.77
2022-12-03T00:13:50.151Z,29.88
2022-12-03T00:14:52.677Z,32.25
2022-12-03T00:15:55.066Z,34.65
2022-12-03T00:16:57.475Z,31.23
2022-12-03T00:17:59.747Z,26.70
2022-12-03T00:19:02.640Z,39.05
2022-12-03T00:20:07.856Z,28.33
2022-12-03T00:21:10.178Z,34.17
2022-12-03T00:22:12.936Z,30.83
2022-12-03T00:23:15.283Z,35.28
2022-12-03T00:24:17.531Z,31.90
2022-12-03T00:25:19.875Z,30.05
2022-12-03T00:26:22.063Z,27.63
2022-12-03T00:27:24.541Z,33.35
2022-12-03T00:28:26.865Z,31.05
2022-12-03T00:29:29.118Z,28.38
2022-12-03T00:30:31.369Z,30.80
2022-12-03T00:31:33.735Z,32.28
2022-12-03T00:32:36.053Z,28.58
2022-12-03T00:33:38.283Z,25.45
2022-12-03T00:34:40.556Z,35.30
2022-12-03T00:35:42.828Z,30.80
2022-12-03T00:36:45.087Z,32.58
2022-12-03T00:37:47.447Z,32.72
2022-12-03T00:38:49.689Z,29.00
2022-12-03T00:39:51.985Z,29.55
2022-12-03T00:40:54.216Z,31.60
2022-12-03T00:41:57.007Z,27.75
2022-12-03T00:42:59.329Z,29.35
2022-12-03T00:44:01.609Z,32.58
2022-12-03T00:45:04.257Z,28.70
2022-12-03T00:46:06.608Z,35.10
2022-12-03T00:47:09.886Z,34.17
2022-12-03T00:48:12.181Z,30.52
2022-12-03T00:49:14.515Z,30.50
2022-12-03T00:50:16.901Z,26.77
2022-12-03T00:51:19.487Z,31.90
2022-12-03T00:52:21.835Z,31.03
2022-12-03T00:53:24.299Z,33.35
2022-12-03T00:54:31.596Z,33.78
2022-12-03T00:55:34.241Z,30.88
2022-12-03T00:56:36.443Z,30.77
2022-12-03T00:57:38.679Z,29.90
2022-12-03T00:58:40.876Z,31.10
2022-12-03T00:59:43.191Z,27.45
2022-12-03T01:00:45.396Z,27.90
2022-12-03T01:01:47.800Z,30.55
2022-12-03T01:02:50.859Z,30.35
2022-12-03T01:03:53.004Z,34.80
2022-12-03T01:04:56.638Z,28.20
2022-12-03T01:05:59.130Z,31.25
2022-12-03T01:07:01.762Z,28.83
2022-12-03T01:08:04.230Z,27.95
2022-12-03T01:09:06.577Z,32.28
2022-12-03T01:10:09.127Z,38.35
2022-12-03T01:11:31.359Z,34.92
2022-12-03T01:12:33.603Z,35.38
2022-12-03T01:13:35.804Z,34.58
2022-12-03T01:14:38.149Z,33.00
2022-12-03T01:15:40.453Z,25.70
2022-12-03T01:16:43.052Z,32.63
2022-12-03T01:17:45.275Z,30.55
2022-12-03T01:18:47.528Z,28.60
2022-12-03T01:19:52.488Z,26.90
2022-12-03T01:20:54.728Z,33.03
2022-12-03T01:21:57.041Z,33.88
2022-12-03T01:22:59.286Z,29.65
2022-12-03T01:24:01.542Z,26.75
2022-12-03T01:25:04.464Z,33.05
2022-12-03T01:26:06.776Z,32.05
2022-12-03T01:27:09.092Z,31.80
2022-12-03T01:28:11.691Z,34.58
2022-12-03T01:29:14.620Z,33.03
2022-12-03T01:30:16.916Z,31.45
2022-12-03T01:31:38.104Z,34.85
2022-12-03T01:32:40.446Z,27.52
2022-12-03T01:33:42.651Z,31.00
2022-12-03T01:34:53.035Z,34.90
2022-12-03T01:35:55.643Z,40.10
2022-12-03T01:36:57.955Z,37.00
2022-12-03T01:38:00.212Z,33.95
2022-12-03T01:39:03.294Z,31.58
2022-12-03T01:40:07.652Z,34.25
2022-12-03T01:41:11.829Z,43.10
2022-12-03T01:42:21.196Z,37.63
2022-12-03T01:43:23.431Z,32.70
2022-12-03T01:44:36.673Z,31.92
2022-12-03T01:45:38.943Z,32.42
2022-12-03T01:46:42.649Z,34.08
2022-12-03T01:47:45.041Z,32.22
2022-12-03T01:48:49.049Z,35.15
2022-12-03T01:49:55.192Z,36.45
2022-12-03T01:50:57.505Z,34.03
2022-12-03T01:52:01.245Z,37.95
2022-12-03T01:53:04.989Z,38.42
2022-12-03T01:54:16.151Z,35.42
2022-12-03T01:55:21.135Z,36.55
2022-12-03T01:56:23.352Z,39.08
2022-12-03T01:57:29.740Z,40.63
2022-12-03T01:58:32.250Z,38.45
2022-12-03T01:59:37.331Z,38.55
2022-12-03T02:00:40.440Z,40.40
2022-12-03T02:01:42.967Z,33.42
2022-12-03T02:02:46.662Z,38.97
2022-12-03T02:03:49.020Z,38.35
2022-12-03T02:04:53.358Z,36.33
2022-12-03T02:05:56.938Z,28.77
2022-12-03T02:07:27.929Z,34.92
2022-12-03T02:08:35.848Z,33.20
2022-12-03T02:09:38.060Z,33.97
2022-12-03T02:10:40.740Z,39.63
2022-12-03T02:11:46.335Z,34.55
2022-12-03T02:13:07.187Z,38.65
2022-12-03T02:14:13.845Z,36.00
2022-12-03T02:15:16.658Z,35.55
2022-12-03T02:16:19.125Z,39.53
2022-12-03T02:17:21.520Z,36.92
2022-12-03T02:18:23.849Z,35.78
2022-12-03T02:19:29.453Z,38.72
2022-12-03T02:20:35.831Z,37.72
2022-12-03T02:21:49.120Z,38.00
2022-12-03T02:23:06.632Z,33.35
2022-12-03T02:24:15.180Z,36.05
2022-12-03T02:25:27.566Z,36.85
2022-12-03T02:26:29.936Z,37.53
2022-12-03T02:27:32.249Z,38.38
2022-12-03T02:28:34.810Z,36.95
2022-12-03T02:29:37.265Z,37.80
2022-12-03T02:30:39.639Z,42.08
2022-12-03T02:31:43.337Z,40.13
2022-12-03T02:32:45.844Z,33.67
2022-12-03T02:33:48.172Z,38.47
2022-12-03T02:34:52.144Z,37.15
2022-12-03T02:35:57.945Z,39.25
2022-12-03T02:37:05.135Z,35.30
2022-12-03T02:38:21.134Z,40.55
2022-12-03T02:39:23.476Z,33.78
2022-12-03T02:40:30.856Z,35.38
2022-12-03T02:41:51.533Z,36.80
2022-12-03T02:42:58.678Z,41.55
2022-12-03T02:44:01.350Z,39.17
2022-12-03T02:45:11.700Z,37.13
2022-12-03T02:46:13.963Z,37.10
2022-12-03T02:47:16.487Z,39.15
2022-12-03T02:48:24.081Z,35.78
2022-12-03T02:49:26.429Z,40.03
2022-12-03T02:50:35.800Z,35.78
2022-12-03T02:51:38.050Z,34.67
2022-12-03T02:52:42.044Z,45.70
2022-12-03T02:53:48.708Z,39.90
2022-12-03T02:54:52.177Z,38.08
2022-12-03T02:55:57.407Z,43.13
2022-12-03T02:56:59.891Z,41.67
2022-12-03T02:58:04.050Z,45.22
2022-12-03T02:59:06.476Z,40.38
2022-12-03T03:00:10.904Z,41.53
2022-12-03T03:01:15.465Z,45.03
2022-12-03T03:02:18.072Z,45.95
2022-12-03T03:03:22.226Z,40.38
2022-12-03T03:04:24.955Z,41.10
2022-12-03T03:05:27.396Z,37.20
2022-12-03T03:06:29.675Z,42.33
2022-12-03T03:07:31.989Z,44.60
2022-12-03T03:08:35.257Z,41.55
2022-12-03T03:09:37.714Z,42.85
2022-12-03T03:10:41.377Z,40.67
2022-12-03T03:11:43.649Z,39.47
2022-12-03T03:12:46.455Z,47.65
2022-12-03T03:13:48.797Z,42.92
2022-12-03T03:14:51.206Z,48.03
2022-12-03T03:15:54.798Z,41.35
2022-12-03T03:16:57.936Z,42.92
2022-12-03T03:18:00.253Z,40.00
2022-12-03T03:19:02.777Z,40.30
2022-12-03T03:20:06.956Z,45.92
2022-12-03T03:21:09.638Z,40.78
2022-12-03T03:22:12.389Z,47.10
2022-12-03T03:23:21.482Z,52.92
2022-12-03T03:24:24.331Z,54.30
2022-12-03T03:25:26.614Z,45.92
2022-12-03T03:26:29.912Z,47.70
2022-12-03T03:27:32.903Z,44.15
2022-12-03T03:28:38.693Z,42.22
2022-12-03T03:29:40.943Z,46.75
2022-12-03T03:30:46.561Z,47.60
2022-12-03T03:31:49.543Z,52.00
2022-12-03T03:32:51.860Z,51.30
2022-12-03T03:33:54.261Z,47.63
2022-12-03T03:34:57.215Z,52.38
2022-12-03T03:36:00.562Z,48.22
2022-12-03T03:37:02.808Z,50.85
2022-12-03T03:38:05.642Z,54.42
2022-12-03T03:39:08.152Z,47.53
2022-12-03T03:40:10.953Z,48.83
2022-12-03T03:41:14.452Z,48.70
2022-12-03T03:42:16.883Z,49.47
2022-12-03T03:43:22.048Z,50.55
2022-12-03T03:44:24.371Z,49.97
2022-12-03T03:45:29.285Z,51.53
2022-12-03T03:46:33.593Z,50.25
2022-12-03T03:47:36.082Z,51.00
2022-12-03T03:48:38.694Z,51.15
2022-12-03T03:49:41.730Z,49.30
2022-12-03T03:50:45.029Z,50.33
2022-12-03T03:51:47.652Z,52.92
2022-12-03T03:52:49.926Z,51.90
2022-12-03T03:53:52.579Z,55.47
2022-12-03T03:54:56.053Z,52.58
2022-12-03T03:55:58.411Z,54.60
2022-12-03T03:57:00.692Z,52.58
2022-12-03T03:58:03.064Z,58.05
2022-12-03T03:59:05.468Z,60.38
2022-12-03T04:00:08.922Z,64.15
2022-12-03T04:01:13.224Z,57.50
2022-12-03T04:02:19.676Z,63.58
2022-12-03T04:03:22.075Z,51.35
2022-12-03T04:04:29.261Z,61.83
2022-12-03T04:05:31.778Z,53.67
2022-12-03T04:06:33.991Z,61.50
2022-12-03T04:07:36.264Z,54.67
2022-12-03T04:08:38.513Z,55.00
2022-12-03T04:09:40.825Z,64.20
2022-12-03T04:11:01.547Z,55.65
2022-12-03T04:12:22.393Z,61.33
2022-12-03T04:13:24.601Z,53.10
2022-12-03T04:14:26.845Z,50.85
2022-12-03T04:15:29.253Z,48.08
2022-12-03T04:16:31.673Z,51.95
2022-12-03T04:17:33.955Z,57.72
2022-12-03T04:18:45.084Z,54.85
2022-12-03T04:19:47.317Z,52.05
2022-12-03T04:20:49.545Z,52.55
2022-12-03T04:22:10.468Z,54.60
2022-12-03T04:23:12.699Z,55.35
2022-12-03T04:24:14.887Z,55.15
2022-12-03T04:25:35.656Z,52.08
2022-12-03T04:26:56.547Z,55.50
2022-12-03T04:28:17.291Z,58.13
2022-12-03T04:29:21.648Z,52.35
2022-12-03T04:30:23.955Z,53.70
2022-12-03T04:31:44.607Z,49.13
2022-12-03T04:33:05.309Z,57.80
2022-12-03T04:34:26.820Z,46.60
2022-12-03T04:35:44.304Z,58.15
2022-12-03T04:36:47.147Z,55.80
2022-12-03T04:37:49.378Z,50.63
2022-12-03T04:38:51.705Z,56.58
2022-12-03T04:39:54.057Z,48.20
2022-12-03T04:41:04.055Z,51.53
2022-12-03T04:42:06.507Z,50.20
2022-12-03T04:43:08.766Z,51.13
2022-12-03T04:44:30.027Z,58.88
2022-12-03T04:45:32.384Z,48.10
2022-12-03T04:46:34.846Z,54.55
2022-12-03T04:47:40.050Z,57.28
2022-12-03T04:48:42.446Z,56.22
2022-12-03T04:49:49.715Z,52.20
2022-12-03T04:50:52.099Z,54.30
2022-12-03T04:51:54.325Z,55.58
2022-12-03T04:52:56.892Z,54.40
2022-12-03T04:53:59.167Z,49.70
2022-12-03T04:55:01.362Z,49.45
2022-12-03T04:56:03.605Z,53.80
2022-12-03T04:57:06.813Z,52.08
2022-12-03T04:58:09.588Z,50.63
2022-12-03T04:59:16.021Z,55.72
2022-12-03T05:00:19.161Z,60.47
2022-12-03T05:01:21.522Z,58.10
2022-12-03T05:02:23.947Z,52.67
2022-12-03T05:03:26.180Z,57.08
2022-12-03T05:04:28.695Z,52.45
2022-12-03T05:05:31.112Z,54.80
2022-12-03T05:06:33.315Z,51.55
2022-12-03T05:07:35.574Z,55.10
2022-12-03T05:08:37.881Z,53.20
2022-12-03T05:09:40.124Z,55.85
2022-12-03T05:10:42.309Z,51.20
2022-12-03T05:11:44.846Z,53.33
2022-12-03T05:12:47.083Z,52.45
2022-12-03T05:13:50.076Z,55.17
2022-12-03T05:14:52.746Z,55.92
2022-12-03T05:15:55.157Z,56.45
2022-12-03T05:16:57.444Z,54.72
2022-12-03T05:18:00.287Z,56.35
2022-12-03T05:19:03.288Z,53.88
2022-12-03T05:20:24.926Z,58.33
2022-12-03T05:21:27.234Z,54.13
2022-12-03T05:22:29.431Z,57.55
2022-12-03T05:23:31.730Z,58.00
2022-12-03T05:24:33.918Z,57.13
2022-12-03T05:25:36.442Z,54.30
2022-12-03T05:26:38.702Z,51.00
2022-12-03T05:27:40.924Z,62.45
2022-12-03T05:28:43.133Z,54.72
2022-12-03T05:29:45.374Z,51.88
2022-12-03T05:30:47.776Z,61.13
2022-12-03T05:31:50.122Z,58.90
2022-12-03T05:32:52.379Z,53.13
2022-12-03T05:33:55.182Z,51.05
2022-12-03T05:34:57.462Z,63.50
2022-12-03T05:36:00.175Z,55.67
2022-12-03T05:37:02.353Z,52.40
2022-12-03T05:38:04.602Z,57.55
2022-12-03T05:39:06.808Z,58.08
2022-12-03T05:40:10.069Z,56.08
2022-12-03T05:41:31.018Z,61.33
2022-12-03T05:42:51.754Z,56.38
2022-12-03T05:43:55.066Z,50.55
2022-12-03T05:44:57.319Z,58.83
2022-12-03T05:45:59.580Z,59.22
2022-12-03T05:47:01.790Z,56.95
2022-12-03T05:48:06.223Z,61.83
2022-12-03T05:49:08.498Z,55.17
2022-12-03T05:50:11.024Z,56.10
2022-12-03T05:51:13.295Z,50.22
2022-12-03T05:52:15.556Z,60.50
2022-12-03T05:53:18.790Z,52.83
2022-12-03T05:54:20.988Z,54.72
2022-12-03T05:55:23.650Z,55.50
2022-12-03T05:56:25.865Z,59.10
2022-12-03T05:57:28.192Z,53.65
2022-12-03T05:58:30.467Z,56.60
2022-12-03T05:59:32.779Z,54.05
2022-12-03T06:00:42.822Z,63.95
2022-12-03T06:01:45.403Z,57.65
2022-12-03T06:02:47.896Z,58.33
2022-12-03T06:03:50.401Z,58.45
2022-12-03T06:04:53.466Z,57.15
2022-12-03T06:05:55.982Z,55.08
2022-12-03T06:06:58.186Z,59.92
2022-12-03T06:08:00.775Z,55.40
2022-12-03T06:09:04.101Z,53.20
2022-12-03T06:10:08.527Z,59.47
2022-12-03T06:11:10.761Z,61.95
2022-12-03T06:12:13.004Z,56.72
2022-12-03T06:13:15.222Z,53.55
2022-12-03T06:14:17.487Z,51.80
2022-12-03T06:15:20.471Z,61.15
2022-12-03T06:16:22.832Z,59.45
2022-12-03T06:17:25.501Z,64.35
2022-12-03T06:18:27.705Z,56.40
2022-12-03T06:19:29.947Z,51.70
2022-12-03T06:20:32.179Z,57.88
2022-12-03T06:21:34.542Z,52.53
2022-12-03T06:22:36.810Z,53.53
2022-12-03T06:23:44.686Z,52.92
2022-12-03T06:24:47.330Z,52.90
2022-12-03T06:25:49.524Z,55.45
2022-12-03T06:26:51.898Z,51.28
2022-12-03T06:27:54.207Z,59.67
2022-12-03T06:28:56.499Z,54.28
2022-12-03T06:29:58.707Z,60.95
2022-12-03T06:31:01.200Z,51.85
2022-12-03T06:32:04.610Z,55.00
2022-12-03T06:33:06.958Z,59.25
2022-12-03T06:34:09.291Z,53.10
2022-12-03T06:35:12.639Z,55.95
2022-12-03T06:36:17.801Z,46.90
2022-12-03T06:37:23.696Z,45.97
2022-12-03T06:38:26.035Z,55.80
2022-12-03T06:39:28.430Z,55.80
2022-12-03T06:40:30.752Z,58.10
2022-12-03T06:41:33.147Z,47.70
2022-12-03T06:42:35.399Z,55.97
2022-12-03T06:43:37.768Z,51.15
2022-12-03T06:44:39.956Z,59.67
2022-12-03T06:45:46.226Z,50.97
2022-12-03T06:46:50.210Z,51.92
2022-12-03T06:47:52.522Z,49.30
2022-12-03T06:48:54.755Z,49.08
2022-12-03T06:49:56.956Z,55.80
2022-12-03T06:50:59.217Z,56.65
2022-12-03T06:52:01.643Z,54.55
2022-12-03T06:53:03.839Z,51.30
2022-12-03T06:54:06.544Z,50.42
2022-12-03T06:55:09.361Z,54.63
2022-12-03T06:56:11.577Z,53.97
2022-12-03T06:57:13.879Z,63.95
2022-12-03T06:58:16.076Z,55.53
2022-12-03T06:59:18.407Z,59.88
2022-12-03T07:00:21.275Z,49.40
2022-12-03T07:01:23.785Z,51.45
2022-12-03T07:02:26.067Z,48.05
2022-12-03T07:03:28.297Z,54.30
2022-12-03T07:04:30.788Z,53.88
2022-12-03T07:05:32.988Z,52.45
2022-12-03T07:06:35.335Z,55.03
2022-12-03T07:07:37.629Z,57.55
2022-12-03T07:08:39.908Z,58.28
2022-12-03T07:09:42.215Z,48.45
2022-12-03T07:10:44.444Z,49.05
2022-12-03T07:11:46.640Z,55.15
2022-12-03T07:12:48.891Z,56.75
2022-12-03T07:13:51.111Z,55.35
2022-12-03T07:14:53.853Z,55.35
2022-12-03T07:15:56.351Z,49.63
2022-12-03T07:16:58.590Z,54.55
2022-12-03T07:18:00.799Z,49.70
2022-12-03T07:19:05.455Z,53.80
2022-12-03T07:20:08.339Z,56.45
2022-12-03T07:21:10.846Z,50.10
2022-12-03T07:22:13.204Z,53.60
2022-12-03T07:23:15.395Z,56.00
2022-12-03T07:24:17.610Z,57.30
2022-12-03T07:25:23.520Z,63.92
2022-12-03T07:26:26.435Z,67.97
2022-12-03T07:27:28.682Z,55.88
2022-12-03T07:28:30.913Z,53.00
2022-12-03T07:29:33.199Z,55.78
2022-12-03T07:30:35.495Z,51.35
2022-12-03T07:31:37.772Z,53.33
2022-12-03T07:32:40.187Z,60.78
2022-12-03T07:33:42.522Z,53.47
2022-12-03T07:34:44.724Z,56.95
2022-12-03T07:35:47.004Z,50.75
2022-12-03T07:36:49.414Z,49.63
2022-12-03T07:37:51.632Z,49.97
2022-12-03T07:38:53.872Z,52.63
2022-12-03T07:39:56.097Z,53.33
2022-12-03T07:40:58.438Z,49.80
2022-12-03T07:42:00.624Z,53.15
2022-12-03T07:43:02.883Z,51.28
2022-12-03T07:44:10.680Z,53.70
2022-12-03T07:45:16.766Z,50.83
2022-12-03T07:46:19.071Z,50.10
2022-12-03T07:47:21.361Z,48.45
2022-12-03T07:48:38.749Z,47.38
2022-12-03T07:49:41.005Z,52.17
2022-12-03T07:50:43.274Z,50.38
2022-12-03T07:51:54.102Z,55.90
2022-12-03T07:52:56.439Z,56.65
2022-12-03T07:53:58.703Z,55.85
2022-12-03T07:55:01.059Z,47.92
2022-12-03T07:56:04.221Z,50.67
2022-12-03T07:57:07.165Z,60.58
2022-12-03T07:58:09.498Z,55.55
2022-12-03T07:59:11.675Z,55.42
2022-12-03T08:00:14.970Z,50.80
2022-12-03T08:01:17.387Z,52.15
2022-12-03T08:02:21.699Z,46.42
2022-12-03T08:03:24.812Z,51.38
2022-12-03T08:04:27.045Z,57.10
2022-12-03T08:05:29.891Z,49.65
2022-12-03T08:06:32.163Z,53.95
2022-12-03T08:07:34.484Z,50.20
2022-12-03T08:08:36.736Z,55.83
2022-12-03T08:09:40.914Z,53.85
2022-12-03T08:10:43.152Z,56.83
2022-12-03T08:11:49.003Z,54.80
2022-12-03T08:12:51.524Z,52.03
2022-12-03T08:13:53.737Z,53.35
2022-12-03T08:14:56.876Z,50.47
2022-12-03T08:16:03.008Z,53.92
2022-12-03T08:17:11.533Z,54.78
2022-12-03T08:18:19.409Z,53.08
2022-12-03T08:19:22.552Z,51.40
2022-12-03T08:20:28.422Z,49.97
2022-12-03T08:21:36.016Z,56.08
2022-12-03T08:22:38.248Z,60.47
2022-12-03T08:23:40.840Z,59.17
2022-12-03T08:24:43.902Z,51.92
2022-12-03T08:25:46.647Z,57.05
2022-12-03T08:26:49.749Z,57.92
2022-12-03T08:27:55.391Z,52.63
2022-12-03T08:28:57.786Z,54.58
2022-12-03T08:30:04.426Z,57.45
2022-12-03T08:31:19.793Z,57.83
2022-12-03T08:32:22.154Z,59.38
2022-12-03T08:33:33.631Z,56.13
2022-12-03T08:34:42.450Z,49.80
2022-12-03T08:35:50.797Z,56.08
2022-12-03T08:37:02.076Z,51.88
2022-12-03T08:38:12.852Z,52.75
2022-12-03T08:39:33.590Z,56.60
2022-12-03T08:40:39.420Z,59.85
2022-12-03T08:42:00.908Z,51.55
2022-12-03T08:43:13.982Z,57.20
2022-12-03T08:44:32.651Z,49.08
2022-12-03T08:45:40.282Z,50.53
2022-12-03T08:46:42.721Z,47.75
2022-12-03T08:47:45.283Z,49.05
2022-12-03T08:48:49.353Z,59.88
2022-12-03T08:49:55.988Z,51.50
2022-12-03T08:51:09.262Z,55.60
2022-12-03T08:52:15.854Z,53.65
2022-12-03T08:53:37.592Z,55.03
2022-12-03T08:54:39.815Z,51.00
2022-12-03T08:55:52.844Z,50.95
2022-12-03T08:56:55.302Z,51.15
2022-12-03T08:57:58.524Z,55.35
2022-12-03T08:59:18.433Z,54.00
2022-12-03T09:00:24.840Z,57.80
2022-12-03T09:01:30.044Z,52.30
2022-12-03T09:02:34.464Z,55.13
2022-12-03T09:03:38.598Z,60.55
2022-12-03T09:04:47.203Z,51.42
2022-12-03T09:05:49.460Z,48.92
2022-12-03T09:06:52.675Z,55.28
2022-12-03T09:07:55.349Z,54.67
2022-12-03T09:09:00.132Z,54.42
2022-12-03T09:10:06.371Z,52.72
2022-12-03T09:11:08.611Z,49.95
2022-12-03T09:12:10.876Z,57.92
2022-12-03T09:13:13.208Z,51.58
2022-12-03T09:14:18.856Z,56.95
2022-12-03T09:15:21.378Z,62.05
2022-12-03T09:16:25.577Z,52.38
2022-12-03T09:17:27.944Z,52.33
2022-12-03T09:18:30.240Z,49.10
2022-12-03T09:19:38.071Z,55.63
2022-12-03T09:20:43.659Z,61.67
2022-12-03T09:21:45.957Z,51.08
2022-12-03T09:22:48.711Z,50.38
2022-12-03T09:23:50.910Z,50.13
2022-12-03T09:24:53.424Z,57.70
2022-12-03T09:25:55.847Z,53.65
2022-12-03T09:26:58.111Z,52.38
2022-12-03T09:28:00.360Z,53.40
2022-12-03T09:29:05.307Z,51.17
2022-12-03T09:30:11.696Z,54.55
2022-12-03T09:31:15.285Z,46.10
2022-12-03T09:32:18.801Z,46.92
2022-12-03T09:33:21.434Z,56.65
2022-12-03T09:34:23.683Z,50.60
2022-12-03T09:35:27.280Z,45.25
2022-12-03T09:36:29.971Z,53.30
2022-12-03T09:37:32.249Z,50.33
2022-12-03T09:38:34.988Z,46.25
2022-12-03T09:39:37.207Z,55.63
2022-12-03T09:40:39.527Z,52.17
2022-12-03T09:41:41.862Z,47.10
2022-12-03T09:42:44.628Z,47.13
2022-12-03T09:44:04.002Z,49.83
2022-12-03T09:45:10.921Z,49.35
2022-12-03T09:46:13.489Z,53.38
2022-12-03T09:47:15.766Z,51.40
2022-12-03T09:48:19.440Z,53.50
2022-12-03T09:49:22.035Z,46.25
2022-12-03T09:50:26.864Z,50.60
2022-12-03T09:51:33.754Z,59.05
2022-12-03T09:52:36.136Z,51.03
2022-12-03T09:53:41.303Z,51.17
2022-12-03T09:54:51.915Z,52.83
2022-12-03T09:55:54.631Z,54.25
2022-12-03T09:56:59.396Z,70.25
2022-12-03T09:58:02.132Z,55.17
2022-12-03T09:59:14.763Z,52.83
2022-12-03T10:00:19.979Z,50.70
2022-12-03T10:01:25.019Z,52.10
2022-12-03T10:02:31.326Z,51.85
2022-12-03T10:03:33.617Z,54.55
2022-12-03T10:04:35.843Z,46.80
2022-12-03T10:05:42.526Z,52.15
2022-12-03T10:06:48.165Z,50.70
2022-12-03T10:07:51.798Z,55.35
2022-12-03T10:08:55.617Z,49.45
2022-12-03T10:09:57.847Z,46.20
2022-12-03T10:11:00.223Z,51.38
2022-12-03T10:12:02.571Z,50.90
2022-12-03T10:13:05.424Z,51.22
2022-12-03T10:14:07.665Z,50.67
2022-12-03T10:15:14.127Z,50.70
2022-12-03T10:16:20.919Z,53.17
2022-12-03T10:17:23.471Z,50.05
2022-12-03T10:18:30.804Z,46.50
2022-12-03T10:19:35.785Z,53.63
2022-12-03T10:20:38.078Z,45.47
2022-12-03T10:21:40.271Z,44.20
2022-12-03T10:22:42.671Z,45.85
2022-12-03T10:23:48.453Z,49.00
2022-12-03T10:25:13.875Z,45.22
2022-12-03T10:26:16.873Z,48.88
2022-12-03T10:27:29.223Z,47.75
2022-12-03T10:28:37.654Z,47.67
2022-12-03T10:29:39.855Z,44.90
2022-12-03T10:30:54.838Z,49.60
2022-12-03T10:31:58.497Z,43.05
2022-12-03T10:33:17.368Z,49.95
2022-12-03T10:34:26.121Z,48.25
2022-12-03T10:35:41.289Z,48.47
2022-12-03T10:36:43.583Z,44.13
2022-12-03T10:38:03.339Z,54.95
2022-12-03T10:39:09.523Z,48.45
2022-12-03T10:40:12.335Z,43.33
2022-12-03T10:41:25.894Z,53.72
2022-12-03T10:42:33.489Z,45.47
2022-12-03T10:43:35.858Z,51.72
2022-12-03T10:44:38.056Z,48.20
2022-12-03T10:45:40.997Z,42.08
2022-12-03T10:46:44.134Z,54.95
2022-12-03T10:48:11.755Z,52.63
2022-12-03T10:49:19.099Z,48.55
2022-12-03T10:50:21.313Z,52.15
2022-12-03T10:51:23.568Z,47.35
2022-12-03T10:52:26.340Z,46.45
2022-12-03T10:53:31.577Z,46.30
2022-12-03T10:54:35.305Z,52.35
2022-12-03T10:55:40.783Z,51.78
2022-12-03T10:56:43.731Z,49.47
2022-12-03T10:57:47.166Z,48.97
2022-12-03T10:58:49.521Z,48.50
2022-12-03T10:59:52.798Z,47.35
2022-12-03T11:00:57.389Z,47.10
2022-12-03T11:01:59.982Z,49.60
2022-12-03T11:03:02.407Z,48.15
2022-12-03T11:04:05.357Z,42.45
2022-12-03T11:05:07.985Z,44.72
2022-12-03T11:06:18.655Z,49.55
2022-12-03T11:07:22.098Z,49.33
2022-12-03T11:08:34.661Z,43.22
2022-12-03T11:09:36.927Z,50.75
2022-12-03T11:10:39.174Z,50.72
2022-12-03T11:11:41.527Z,49.80
2022-12-03T11:13:22.412Z,47.28
2022-12-03T11:14:51.061Z,40.00
2022-12-03T11:15:54.450Z,43.35
2022-12-03T11:16:59.375Z,42.63
2022-12-03T11:18:01.624Z,43.50
2022-12-03T11:19:04.673Z,48.50
2022-12-03T11:20:24.944Z,42.47
2022-12-03T11:21:27.246Z,50.80
2022-12-03T11:22:48.716Z,38.67
2022-12-03T11:23:51.130Z,43.42
2022-12-03T11:25:31.538Z,48.53
2022-12-03T11:26:36.452Z,43.53
2022-12-03T11:27:38.660Z,50.13
2022-12-03T11:28:59.482Z,44.78
2022-12-03T11:30:02.224Z,47.55
2022-12-03T11:31:11.809Z,43.40
2022-12-03T11:32:38.772Z,44.22
2022-12-03T11:33:41.523Z,40.17
2022-12-03T11:34:44.186Z,43.13
2022-12-03T11:36:10.542Z,43.55
2022-12-03T11:37:12.728Z,44.08
2022-12-03T11:38:52.849Z,46.00
2022-12-03T11:40:03.533Z,41.30
2022-12-03T11:41:11.127Z,48.05
2022-12-03T11:42:27.912Z,43.22
2022-12-03T11:43:52.099Z,41.45
2022-12-03T11:45:06.134Z,40.08
2022-12-03T11:46:10.226Z,47.17
2022-12-03T11:47:16.882Z,41.42
2022-12-03T11:48:19.244Z,41.10
2022-12-03T11:49:51.057Z,48.05
2022-12-03T11:50:54.047Z,45.28
2022-12-03T11:51:58.104Z,42.30
2022-12-03T11:53:23.503Z,39.90
2022-12-03T11:54:26.330Z,42.67
2022-12-03T11:55:35.644Z,39.78
2022-12-03T11:56:45.830Z,45.35
2022-12-03T11:57:48.090Z,42.88
2022-12-03T11:58:58.864Z,41.50
2022-12-03T12:00:15.909Z,47.33
2022-12-03T12:01:38.291Z,37.70
2022-12-03T12:02:41.422Z,40.15
2022-12-03T12:03:48.378Z,47.53
2022-12-03T12:04:50.725Z,44.00
2022-12-03T12:06:09.302Z,42.33
2022-12-03T12:07:11.667Z,46.58
2022-12-03T12:08:19.213Z,42.28
2022-12-03T12:09:54.907Z,39.17
2022-12-03T12:10:58.239Z,44.35
2022-12-03T12:12:26.879Z,44.30
2022-12-03T12:13:32.100Z,37.28
2022-12-03T12:14:34.290Z,40.10
2022-12-03T12:15:39.626Z,46.85
2022-12-03T12:16:55.301Z,39.55
2022-12-03T12:17:57.677Z,37.50
2022-12-03T12:19:30.799Z,51.30
2022-12-03T12:20:33.023Z,46.08
2022-12-03T12:21:49.933Z,39.08
2022-12-03T12:22:55.011Z,44.90
2022-12-03T12:23:57.211Z,45.17
2022-12-03T12:25:01.758Z,44.75
2022-12-03T12:26:07.508Z,37.67
2022-12-03T12:27:10.798Z,39.53
2022-12-03T12:28:13.077Z,47.58
2022-12-03T12:29:15.311Z,55.28
2022-12-03T12:30:21.737Z,48.08
2022-12-03T12:31:24.027Z,42.10
2022-12-03T12:32:31.886Z,42.20
2022-12-03T12:33:35.419Z,44.08
2022-12-03T12:34:42.180Z,47.40
2022-12-03T12:35:44.470Z,39.55
2022-12-03T12:36:46.750Z,41.63
2022-12-03T12:38:10.869Z,39.25
2022-12-03T12:39:14.850Z,48.55
2022-12-03T12:40:18.913Z,44.65
2022-12-03T12:41:21.151Z,47.05
2022-12-03T12:42:35.125Z,44.90
2022-12-03T12:43:39.545Z,47.10
2022-12-03T12:44:41.883Z,63.08
2022-12-03T12:45:44.809Z,46.53
2022-12-03T12:46:48.644Z,48.13
2022-12-03T12:48:07.709Z,41.28
2022-12-03T12:49:14.998Z,44.70
2022-12-03T12:50:18.808Z,42.83
2022-12-03T12:51:21.139Z,35.40
2022-12-03T12:52:23.349Z,41.97
2022-12-03T12:53:33.860Z,44.35
2022-12-03T12:54:38.080Z,50.47
2022-12-03T12:55:40.956Z,46.53
2022-12-03T12:56:45.000Z,46.97
2022-12-03T12:57:47.403Z,48.15
2022-12-03T12:58:49.883Z,40.65
2022-12-03T12:59:53.766Z,48.97
2022-12-03T13:01:00.579Z,46.28
2022-12-03T13:02:08.594Z,48.30
2022-12-03T13:03:14.392Z,44.35
2022-12-03T13:04:22.672Z,39.95
2022-12-03T13:05:27.813Z,47.53
2022-12-03T13:06:31.924Z,39.85
2022-12-03T13:07:34.286Z,47.38
2022-12-03T13:08:48.691Z,53.15
2022-12-03T13:09:55.606Z,43.08
2022-12-03T13:11:00.257Z,46.22
2022-12-03T13:12:07.509Z,40.88
2022-12-03T13:13:23.165Z,46.13
2022-12-03T13:14:31.480Z,42.40
2022-12-03T13:15:49.398Z,47.55
2022-12-03T13:16:54.705Z,44.25
2022-12-03T13:17:57.687Z,45.00
2022-12-03T13:19:02.258Z,45.55
2022-12-03T13:20:17.148Z,46.33
2022-12-03T13:21:38.913Z,41.80
2022-12-03T13:22:41.309Z,40.63
2022-12-03T13:23:43.556Z,46.67
2022-12-03T13:24:47.909Z,42.60
2022-12-03T13:26:06.852Z,50.85
2022-12-03T13:27:20.464Z,46.08
2022-12-03T13:28:22.781Z,44.83
2022-12-03T13:29:27.083Z,37.60
2022-12-03T13:30:30.345Z,47.70
2022-12-03T13:31:39.335Z,54.72
2022-12-03T13:32:44.679Z,44.75
2022-12-03T13:33:47.028Z,50.20
2022-12-03T13:34:55.355Z,51.53
2022-12-03T13:35:57.677Z,47.50
2022-12-03T13:37:01.765Z,43.53
2022-12-03T13:38:15.274Z,45.85
2022-12-03T13:39:28.886Z,46.55
2022-12-03T13:40:35.235Z,47.90
2022-12-03T13:41:56.554Z,47.88
2022-12-03T13:42:59.910Z,44.28
2022-12-03T13:44:09.886Z,44.85
2022-12-03T13:45:15.060Z,43.97
2022-12-03T13:46:17.969Z,48.60
2022-12-03T13:47:23.695Z,49.50
2022-12-03T13:48:35.664Z,39.45
2022-12-03T13:49:38.045Z,48.60
2022-12-03T13:50:43.942Z,50.45
2022-12-03T13:51:47.269Z,41.45
2022-12-03T13:52:49.624Z,47.15
2022-12-03T13:53:52.316Z,46.78
2022-12-03T13:54:56.742Z,57.75
2022-12-03T13:56:23.447Z,43.83
2022-12-03T13:57:25.738Z,48.88
2022-12-03T13:58:27.923Z,47.55
2022-12-03T13:59:30.138Z,53.25
2022-12-03T14:00:32.430Z,43.20